sensor_id;sensor_type;location;lat;lon;timestamp;P1;durP1;ratioP1;P2;durP2;ratioP2
72590;SDS011;60625;51.212;5.952;2023-01-24T00:02:47;23.40;;;11.80;;
72590;SDS011;60625;51.212;5.952;2023-01-24T00:07:48;20.10;;;11.00;;
72590;SDS011;60625;51.212;5.952;2023-01-24T00:12:48;24.10;;;12.40;;
72590;SDS011;60625;51.212;5.952;2023-01-24T00:17:49;23.80;;;12.60;;
72590;SDS011;60625;51.212;5.952;2023-01-24T00:22:50;23.10;;;12.90;;
72590;SDS011;60625;51.212;5.952;2023-01-24T00:27:50;24.00;;;13.30;;
72590;SDS011;60625;51.212;5.952;2023-01-24T00:32:51;26.50;;;12.70;;
72590;SDS011;60625;51.212;5.952;2023-01-24T00:37:52;27.30;;;12.50;;
72590;SDS011;60625;51.212;5.952;2023-01-24T00:42:52;22.10;;;11.90;;
72590;SDS011;60625;51.212;5.952;2023-01-24T00:47:53;25.50;;;12.70;;
72590;SDS011;60625;51.212;5.952;2023-01-24T00:52:53;24.00;;;12.30;;
72590;SDS011;60625;51.212;5.952;2023-01-24T00:57:53;27.30;;;12.90;;
72590;SDS011;60625;51.212;5.952;2023-01-24T01:02:54;29.10;;;13.70;;
72590;SDS011;60625;51.212;5.952;2023-01-24T01:07:55;24.80;;;12.50;;
72590;SDS011;60625;51.212;5.952;2023-01-24T01:12:56;26.60;;;14.10;;
72590;SDS011;60625;51.212;5.952;2023-01-24T01:17:57;30.10;;;14.20;;
72590;SDS011;60625;51.212;5.952;2023-01-24T01:22:59;27.10;;;14.60;;
72590;SDS011;60625;51.212;5.952;2023-01-24T01:27:59;25.40;;;15.30;;
72590;SDS011;60625;51.212;5.952;2023-01-24T01:33:00;28.40;;;16.00;;
72590;SDS011;60625;51.212;5.952;2023-01-24T01:38:00;27.20;;;16.30;;
72590;SDS011;60625;51.212;5.952;2023-01-24T01:43:01;28.80;;;16.20;;
72590;SDS011;60625;51.212;5.952;2023-01-24T01:53:18;32.70;;;17.10;;
72590;SDS011;60625;51.212;5.952;2023-01-24T01:58:20;28.60;;;16.70;;
72590;SDS011;60625;51.212;5.952;2023-01-24T02:03:29;29.60;;;17.70;;
72590;SDS011;60625;51.212;5.952;2023-01-24T02:08:43;30.70;;;16.30;;
72590;SDS011;60625;51.212;5.952;2023-01-24T02:13:44;33.50;;;18.50;;
72590;SDS011;60625;51.212;5.952;2023-01-24T02:18:45;34.30;;;19.40;;
72590;SDS011;60625;51.212;5.952;2023-01-24T02:24:03;33.10;;;18.30;;
72590;SDS011;60625;51.212;5.952;2023-01-24T02:29:10;32.30;;;17.60;;
72590;SDS011;60625;51.212;5.952;2023-01-24T02:34:12;32.10;;;18.00;;
72590;SDS011;60625;51.212;5.952;2023-01-24T02:39:16;30.60;;;16.90;;
72590;SDS011;60625;51.212;5.952;2023-01-24T02:44:24;29.30;;;15.00;;
72590;SDS011;60625;51.212;5.952;2023-01-24T02:49:29;24.70;;;14.20;;
72590;SDS011;60625;51.212;5.952;2023-01-24T02:54:30;22.80;;;13.00;;
72590;SDS011;60625;51.212;5.952;2023-01-24T02:59:30;21.10;;;12.50;;
72590;SDS011;60625;51.212;5.952;2023-01-24T03:04:31;19.50;;;11.20;;
72590;SDS011;60625;51.212;5.952;2023-01-24T03:09:32;15.60;;;9.10;;
72590;SDS011;60625;51.212;5.952;2023-01-24T03:14:36;19.40;;;11.50;;
72590;SDS011;60625;51.212;5.952;2023-01-24T03:19:57;20.50;;;10.50;;
72590;SDS011;60625;51.212;5.952;2023-01-24T03:25:16;18.80;;;11.40;;
72590;SDS011;60625;51.212;5.952;2023-01-24T03:30:36;22.40;;;11.70;;
72590;SDS011;60625;51.212;5.952;2023-01-24T03:35:56;19.90;;;12.00;;
72590;SDS011;60625;51.212;5.952;2023-01-24T03:41:01;21.10;;;10.90;;
72590;SDS011;60625;51.212;5.952;2023-01-24T03:46:02;19.50;;;10.70;;
72590;SDS011;60625;51.212;5.952;2023-01-24T03:51:17;18.70;;;10.40;;
72590;SDS011;60625;51.212;5.952;2023-01-24T03:56:37;22.10;;;10.60;;
72590;SDS011;60625;51.212;5.952;2023-01-24T04:01:38;21.10;;;11.20;;
72590;SDS011;60625;51.212;5.952;2023-01-24T04:06:52;20.40;;;11.20;;
72590;SDS011;60625;51.212;5.952;2023-01-24T04:11:53;19.40;;;10.70;;
72590;SDS011;60625;51.212;5.952;2023-01-24T04:16:56;21.80;;;11.70;;
72590;SDS011;60625;51.212;5.952;2023-01-24T04:22:03;18.90;;;11.10;;
72590;SDS011;60625;51.212;5.952;2023-01-24T04:27:04;21.20;;;11.20;;
72590;SDS011;60625;51.212;5.952;2023-01-24T04:32:16;18.50;;;10.40;;
72590;SDS011;60625;51.212;5.952;2023-01-24T04:37:26;18.90;;;10.40;;
72590;SDS011;60625;51.212;5.952;2023-01-24T04:42:27;20.60;;;11.10;;
72590;SDS011;60625;51.212;5.952;2023-01-24T04:47:28;20.00;;;11.00;;
72590;SDS011;60625;51.212;5.952;2023-01-24T04:52:28;16.80;;;10.10;;
72590;SDS011;60625;51.212;5.952;2023-01-24T04:57:35;16.90;;;9.10;;
72590;SDS011;60625;51.212;5.952;2023-01-24T05:02:36;17.50;;;8.70;;
72590;SDS011;60625;51.212;5.952;2023-01-24T05:07:38;20.40;;;10.50;;
72590;SDS011;60625;51.212;5.952;2023-01-24T05:12:44;18.50;;;9.80;;
72590;SDS011;60625;51.212;5.952;2023-01-24T05:17:49;20.60;;;10.90;;
72590;SDS011;60625;51.212;5.952;2023-01-24T05:22:55;15.70;;;9.00;;
72590;SDS011;60625;51.212;5.952;2023-01-24T05:27:58;15.80;;;9.10;;
72590;SDS011;60625;51.212;5.952;2023-01-24T05:32:59;15.50;;;8.60;;
72590;SDS011;60625;51.212;5.952;2023-01-24T05:37:59;16.40;;;9.50;;
72590;SDS011;60625;51.212;5.952;2023-01-24T05:43:01;17.70;;;9.20;;
72590;SDS011;60625;51.212;5.952;2023-01-24T05:48:02;17.40;;;9.10;;
72590;SDS011;60625;51.212;5.952;2023-01-24T05:53:03;19.10;;;9.80;;
72590;SDS011;60625;51.212;5.952;2023-01-24T05:58:04;18.50;;;10.30;;
72590;SDS011;60625;51.212;5.952;2023-01-24T06:03:08;14.80;;;8.20;;
72590;SDS011;60625;51.212;5.952;2023-01-24T06:08:09;17.40;;;9.30;;
72590;SDS011;60625;51.212;5.952;2023-01-24T06:13:11;16.90;;;10.10;;
72590;SDS011;60625;51.212;5.952;2023-01-24T06:18:15;17.20;;;9.20;;
72590;SDS011;60625;51.212;5.952;2023-01-24T06:23:24;18.90;;;10.10;;
72590;SDS011;60625;51.212;5.952;2023-01-24T06:28:29;16.00;;;9.00;;
72590;SDS011;60625;51.212;5.952;2023-01-24T06:39:19;17.00;;;8.70;;
72590;SDS011;60625;51.212;5.952;2023-01-24T06:44:21;14.80;;;8.50;;
72590;SDS011;60625;51.212;5.952;2023-01-24T06:49:22;17.40;;;8.90;;
72590;SDS011;60625;51.212;5.952;2023-01-24T06:54:23;18.20;;;9.90;;
72590;SDS011;60625;51.212;5.952;2023-01-24T06:59:23;16.20;;;8.90;;
72590;SDS011;60625;51.212;5.952;2023-01-24T07:04:24;16.90;;;9.90;;
72590;SDS011;60625;51.212;5.952;2023-01-24T07:09:24;18.40;;;9.10;;
72590;SDS011;60625;51.212;5.952;2023-01-24T07:14:25;17.90;;;9.10;;
72590;SDS011;60625;51.212;5.952;2023-01-24T07:19:26;18.90;;;10.10;;
72590;SDS011;60625;51.212;5.952;2023-01-24T07:24:29;18.10;;;9.10;;
72590;SDS011;60625;51.212;5.952;2023-01-24T07:29:29;16.80;;;9.30;;
72590;SDS011;60625;51.212;5.952;2023-01-24T07:34:30;18.00;;;9.70;;
72590;SDS011;60625;51.212;5.952;2023-01-24T07:39:31;19.10;;;9.60;;
72590;SDS011;60625;51.212;5.952;2023-01-24T07:44:32;19.50;;;9.40;;
72590;SDS011;60625;51.212;5.952;2023-01-24T07:49:32;20.00;;;10.70;;
72590;SDS011;60625;51.212;5.952;2023-01-24T07:54:33;21.60;;;11.40;;
72590;SDS011;60625;51.212;5.952;2023-01-24T07:59:34;19.00;;;10.80;;
72590;SDS011;60625;51.212;5.952;2023-01-24T08:04:34;19.30;;;10.40;;
72590;SDS011;60625;51.212;5.952;2023-01-24T08:09:35;20.30;;;11.10;;
72590;SDS011;60625;51.212;5.952;2023-01-24T08:14:35;23.20;;;12.20;;
72590;SDS011;60625;51.212;5.952;2023-01-24T08:19:35;17.70;;;10.50;;
72590;SDS011;60625;51.212;5.952;2023-01-24T08:24:36;22.10;;;11.70;;
72590;SDS011;60625;51.212;5.952;2023-01-24T08:29:36;24.00;;;11.90;;
72590;SDS011;60625;51.212;5.952;2023-01-24T08:34:37;22.10;;;11.90;;
72590;SDS011;60625;51.212;5.952;2023-01-24T08:39:38;22.60;;;10.50;;
72590;SDS011;60625;51.212;5.952;2023-01-24T08:44:38;19.00;;;11.70;;
72590;SDS011;60625;51.212;5.952;2023-01-24T08:49:38;21.30;;;11.30;;
72590;SDS011;60625;51.212;5.952;2023-01-24T08:54:39;24.60;;;12.90;;
72590;SDS011;60625;51.212;5.952;2023-01-24T08:59:40;24.20;;;12.70;;
72590;SDS011;60625;51.212;5.952;2023-01-24T09:04:40;24.20;;;12.00;;
72590;SDS011;60625;51.212;5.952;2023-01-24T09:09:42;22.20;;;12.30;;
72590;SDS011;60625;51.212;5.952;2023-01-24T09:14:43;18.60;;;10.50;;
72590;SDS011;60625;51.212;5.952;2023-01-24T09:19:43;19.30;;;10.70;;
72590;SDS011;60625;51.212;5.952;2023-01-24T09:24:44;20.80;;;12.40;;
72590;SDS011;60625;51.212;5.952;2023-01-24T09:29:44;20.50;;;11.20;;
72590;SDS011;60625;51.212;5.952;2023-01-24T09:34:45;20.60;;;11.40;;
72590;SDS011;60625;51.212;5.952;2023-01-24T09:39:49;20.10;;;11.70;;
72590;SDS011;60625;51.212;5.952;2023-01-24T09:44:59;23.10;;;12.70;;
72590;SDS011;60625;51.212;5.952;2023-01-24T09:50:07;19.80;;;11.40;;
72590;SDS011;60625;51.212;5.952;2023-01-24T09:55:19;22.20;;;12.50;;
72590;SDS011;60625;51.212;5.952;2023-01-24T10:00:28;20.80;;;12.20;;
72590;SDS011;60625;51.212;5.952;2023-01-24T10:05:36;22.90;;;12.20;;
72590;SDS011;60625;51.212;5.952;2023-01-24T10:11:12;24.80;;;13.10;;
72590;SDS011;60625;51.212;5.952;2023-01-24T10:22:13;22.60;;;13.00;;
72590;SDS011;60625;51.212;5.952;2023-01-24T10:27:38;23.70;;;13.30;;
72590;SDS011;60625;51.212;5.952;2023-01-24T10:32:41;22.30;;;11.40;;
72590;SDS011;60625;51.212;5.952;2023-01-24T10:37:48;17.70;;;10.20;;
72590;SDS011;60625;51.212;5.952;2023-01-24T10:42:56;20.20;;;11.20;;
72590;SDS011;60625;51.212;5.952;2023-01-24T10:48:02;21.50;;;11.90;;
72590;SDS011;60625;51.212;5.952;2023-01-24T10:53:14;17.80;;;10.30;;
72590;SDS011;60625;51.212;5.952;2023-01-24T10:58:58;20.90;;;11.50;;
72590;SDS011;60625;51.212;5.952;2023-01-24T11:04:13;20.10;;;11.70;;
72590;SDS011;60625;51.212;5.952;2023-01-24T11:09:31;23.10;;;11.20;;
72590;SDS011;60625;51.212;5.952;2023-01-24T11:14:35;20.50;;;12.20;;
72590;SDS011;60625;51.212;5.952;2023-01-24T11:19:39;19.60;;;11.60;;
72590;SDS011;60625;51.212;5.952;2023-01-24T11:24:44;21.50;;;12.10;;
72590;SDS011;60625;51.212;5.952;2023-01-24T11:30:05;21.00;;;12.70;;
72590;SDS011;60625;51.212;5.952;2023-01-24T11:35:16;20.40;;;11.50;;
72590;SDS011;60625;51.212;5.952;2023-01-24T11:40:38;21.80;;;13.00;;
72590;SDS011;60625;51.212;5.952;2023-01-24T12:07:43;19.60;;;11.50;;
72590;SDS011;60625;51.212;5.952;2023-01-24T12:13:42;20.60;;;11.60;;
72590;SDS011;60625;51.212;5.952;2023-01-24T12:18:48;27.20;;;12.70;;
72590;SDS011;60625;51.212;5.952;2023-01-24T12:29:23;17.30;;;10.60;;
72590;SDS011;60625;51.212;5.952;2023-01-24T12:34:33;19.70;;;11.20;;
72590;SDS011;60625;51.212;5.952;2023-01-24T12:45:02;21.90;;;12.40;;
72590;SDS011;60625;51.212;5.952;2023-01-24T12:50:27;16.10;;;9.40;;
72590;SDS011;60625;51.212;5.952;2023-01-24T12:55:51;15.70;;;9.90;;
72590;SDS011;60625;51.212;5.952;2023-01-24T13:01:26;18.10;;;10.10;;
72590;SDS011;60625;51.212;5.952;2023-01-24T13:06:45;20.70;;;10.40;;
72590;SDS011;60625;51.212;5.952;2023-01-24T13:11:59;19.60;;;11.90;;
72590;SDS011;60625;51.212;5.952;2023-01-24T13:22:48;16.80;;;10.40;;
72590;SDS011;60625;51.212;5.952;2023-01-24T13:28:14;16.00;;;10.10;;
72590;SDS011;60625;51.212;5.952;2023-01-24T13:33:21;17.60;;;10.30;;
72590;SDS011;60625;51.212;5.952;2023-01-24T13:38:29;21.80;;;11.60;;
72590;SDS011;60625;51.212;5.952;2023-01-24T13:48:54;15.90;;;10.30;;
72590;SDS011;60625;51.212;5.952;2023-01-24T13:54:05;18.60;;;10.60;;
72590;SDS011;60625;51.212;5.952;2023-01-24T13:59:15;19.70;;;11.30;;
72590;SDS011;60625;51.212;5.952;2023-01-24T14:04:16;21.00;;;10.80;;
72590;SDS011;60625;51.212;5.952;2023-01-24T14:09:20;20.50;;;11.90;;
72590;SDS011;60625;51.212;5.952;2023-01-24T14:14:33;32.00;;;11.80;;
72590;SDS011;60625;51.212;5.952;2023-01-24T14:19:36;21.00;;;11.60;;
72590;SDS011;60625;51.212;5.952;2023-01-24T14:24:58;17.90;;;10.40;;
72590;SDS011;60625;51.212;5.952;2023-01-24T14:40:28;19.10;;;11.10;;
72590;SDS011;60625;51.212;5.952;2023-01-24T14:45:31;22.40;;;12.30;;
72590;SDS011;60625;51.212;5.952;2023-01-24T14:50:34;19.10;;;11.90;;
72590;SDS011;60625;51.212;5.952;2023-01-24T14:55:38;22.90;;;11.70;;
72590;SDS011;60625;51.212;5.952;2023-01-24T15:00:41;20.80;;;12.80;;
72590;SDS011;60625;51.212;5.952;2023-01-24T15:05:52;22.90;;;13.00;;
72590;SDS011;60625;51.212;5.952;2023-01-24T15:16:50;25.80;;;13.10;;
72590;SDS011;60625;51.212;5.952;2023-01-24T15:21:53;22.00;;;12.70;;
72590;SDS011;60625;51.212;5.952;2023-01-24T15:26:56;21.00;;;12.70;;
72590;SDS011;60625;51.212;5.952;2023-01-24T15:31:57;22.10;;;12.40;;
72590;SDS011;60625;51.212;5.952;2023-01-24T15:36:59;21.50;;;12.80;;
72590;SDS011;60625;51.212;5.952;2023-01-24T15:42:05;21.10;;;12.80;;
72590;SDS011;60625;51.212;5.952;2023-01-24T15:47:25;25.60;;;13.40;;
72590;SDS011;60625;51.212;5.952;2023-01-24T15:52:44;21.80;;;12.80;;
72590;SDS011;60625;51.212;5.952;2023-01-24T15:57:45;20.80;;;12.10;;
72590;SDS011;60625;51.212;5.952;2023-01-24T16:02:45;20.30;;;13.20;;
72590;SDS011;60625;51.212;5.952;2023-01-24T16:07:46;21.10;;;13.60;;
72590;SDS011;60625;51.212;5.952;2023-01-24T16:12:48;20.70;;;12.70;;
72590;SDS011;60625;51.212;5.952;2023-01-24T16:17:49;25.20;;;13.00;;
72590;SDS011;60625;51.212;5.952;2023-01-24T16:22:50;21.70;;;13.20;;
72590;SDS011;60625;51.212;5.952;2023-01-24T16:27:51;27.50;;;15.00;;
72590;SDS011;60625;51.212;5.952;2023-01-24T16:32:53;27.00;;;13.80;;
72590;SDS011;60625;51.212;5.952;2023-01-24T16:37:54;26.50;;;15.00;;
72590;SDS011;60625;51.212;5.952;2023-01-24T16:42:56;24.30;;;15.30;;
72590;SDS011;60625;51.212;5.952;2023-01-24T16:47:56;28.00;;;15.00;;
72590;SDS011;60625;51.212;5.952;2023-01-24T16:52:56;25.40;;;14.60;;
72590;SDS011;60625;51.212;5.952;2023-01-24T16:57:57;24.00;;;14.50;;
72590;SDS011;60625;51.212;5.952;2023-01-24T17:02:58;23.90;;;13.40;;
72590;SDS011;60625;51.212;5.952;2023-01-24T17:07:59;29.00;;;14.70;;
72590;SDS011;60625;51.212;5.952;2023-01-24T17:12:59;25.40;;;14.60;;
72590;SDS011;60625;51.212;5.952;2023-01-24T17:18:00;26.90;;;15.80;;
72590;SDS011;60625;51.212;5.952;2023-01-24T17:23:00;25.10;;;13.60;;
72590;SDS011;60625;51.212;5.952;2023-01-24T17:28:01;28.60;;;15.60;;
72590;SDS011;60625;51.212;5.952;2023-01-24T17:33:02;30.50;;;16.40;;
72590;SDS011;60625;51.212;5.952;2023-01-24T17:38:02;24.90;;;15.10;;
72590;SDS011;60625;51.212;5.952;2023-01-24T17:43:04;23.40;;;14.50;;
72590;SDS011;60625;51.212;5.952;2023-01-24T17:48:05;28.20;;;16.80;;
72590;SDS011;60625;51.212;5.952;2023-01-24T17:53:06;27.90;;;16.80;;
72590;SDS011;60625;51.212;5.952;2023-01-24T17:58:06;29.50;;;17.50;;
72590;SDS011;60625;51.212;5.952;2023-01-24T18:03:07;27.50;;;16.80;;
72590;SDS011;60625;51.212;5.952;2023-01-24T18:08:09;30.10;;;16.80;;
72590;SDS011;60625;51.212;5.952;2023-01-24T18:13:10;28.90;;;18.20;;
72590;SDS011;60625;51.212;5.952;2023-01-24T18:18:11;29.40;;;17.80;;
72590;SDS011;60625;51.212;5.952;2023-01-24T18:23:12;31.50;;;16.30;;
72590;SDS011;60625;51.212;5.952;2023-01-24T18:28:13;28.80;;;17.70;;
72590;SDS011;60625;51.212;5.952;2023-01-24T18:33:13;28.90;;;17.40;;
72590;SDS011;60625;51.212;5.952;2023-01-24T18:38:13;27.40;;;16.70;;
72590;SDS011;60625;51.212;5.952;2023-01-24T18:43:14;24.80;;;12.50;;
72590;SDS011;60625;51.212;5.952;2023-01-24T18:48:16;28.30;;;15.50;;
72590;SDS011;60625;51.212;5.952;2023-01-24T18:53:17;23.10;;;13.70;;
72590;SDS011;60625;51.212;5.952;2023-01-24T18:58:17;23.10;;;14.40;;
72590;SDS011;60625;51.212;5.952;2023-01-24T19:03:18;23.60;;;15.10;;
72590;SDS011;60625;51.212;5.952;2023-01-24T19:08:18;25.90;;;14.20;;
72590;SDS011;60625;51.212;5.952;2023-01-24T19:13:19;25.10;;;14.40;;
72590;SDS011;60625;51.212;5.952;2023-01-24T19:18:19;26.40;;;12.80;;
72590;SDS011;60625;51.212;5.952;2023-01-24T19:23:20;24.90;;;13.80;;
72590;SDS011;60625;51.212;5.952;2023-01-24T19:28:21;25.40;;;14.10;;
72590;SDS011;60625;51.212;5.952;2023-01-24T19:33:21;25.50;;;15.60;;
72590;SDS011;60625;51.212;5.952;2023-01-24T19:38:26;25.20;;;15.60;;
72590;SDS011;60625;51.212;5.952;2023-01-24T19:43:27;23.30;;;14.00;;
72590;SDS011;60625;51.212;5.952;2023-01-24T19:48:27;24.00;;;13.50;;
72590;SDS011;60625;51.212;5.952;2023-01-24T19:53:28;27.30;;;15.60;;
72590;SDS011;60625;51.212;5.952;2023-01-24T19:58:29;22.80;;;13.90;;
72590;SDS011;60625;51.212;5.952;2023-01-24T20:03:30;25.60;;;14.20;;
72590;SDS011;60625;51.212;5.952;2023-01-24T20:08:30;30.70;;;16.00;;
72590;SDS011;60625;51.212;5.952;2023-01-24T20:13:30;28.80;;;15.00;;
72590;SDS011;60625;51.212;5.952;2023-01-24T20:18:31;28.50;;;17.20;;
72590;SDS011;60625;51.212;5.952;2023-01-24T20:23:31;31.00;;;16.30;;
72590;SDS011;60625;51.212;5.952;2023-01-24T20:28:37;34.40;;;15.60;;
72590;SDS011;60625;51.212;5.952;2023-01-24T20:33:38;26.60;;;16.00;;
72590;SDS011;60625;51.212;5.952;2023-01-24T20:38:40;25.80;;;14.70;;
72590;SDS011;60625;51.212;5.952;2023-01-24T20:43:41;27.60;;;15.80;;
72590;SDS011;60625;51.212;5.952;2023-01-24T20:48:42;23.70;;;14.20;;
72590;SDS011;60625;51.212;5.952;2023-01-24T20:53:42;26.50;;;13.50;;
72590;SDS011;60625;51.212;5.952;2023-01-24T20:58:43;26.90;;;15.90;;
72590;SDS011;60625;51.212;5.952;2023-01-24T21:03:44;29.20;;;16.90;;
72590;SDS011;60625;51.212;5.952;2023-01-24T21:08:47;32.50;;;17.60;;
72590;SDS011;60625;51.212;5.952;2023-01-24T21:13:50;31.60;;;16.90;;
72590;SDS011;60625;51.212;5.952;2023-01-24T21:18:53;28.40;;;16.60;;
72590;SDS011;60625;51.212;5.952;2023-01-24T21:23:56;30.70;;;17.30;;
72590;SDS011;60625;51.212;5.952;2023-01-24T21:28:57;29.60;;;16.70;;
72590;SDS011;60625;51.212;5.952;2023-01-24T21:33:58;29.60;;;15.80;;
72590;SDS011;60625;51.212;5.952;2023-01-24T21:38:58;29.70;;;16.20;;
72590;SDS011;60625;51.212;5.952;2023-01-24T21:44:03;32.20;;;17.70;;
72590;SDS011;60625;51.212;5.952;2023-01-24T21:49:04;31.40;;;18.70;;
72590;SDS011;60625;51.212;5.952;2023-01-24T21:54:07;31.60;;;18.00;;
72590;SDS011;60625;51.212;5.952;2023-01-24T21:59:11;34.00;;;19.00;;
72590;SDS011;60625;51.212;5.952;2023-01-24T22:04:11;32.50;;;18.60;;
72590;SDS011;60625;51.212;5.952;2023-01-24T22:09:14;34.60;;;16.20;;
72590;SDS011;60625;51.212;5.952;2023-01-24T22:14:24;29.50;;;16.20;;
72590;SDS011;60625;51.212;5.952;2023-01-24T22:19:34;30.90;;;17.10;;
72590;SDS011;60625;51.212;5.952;2023-01-24T22:29:44;30.20;;;16.90;;
72590;SDS011;60625;51.212;5.952;2023-01-24T22:34:46;30.70;;;15.80;;
72590;SDS011;60625;51.212;5.952;2023-01-24T22:39:47;31.90;;;17.00;;
72590;SDS011;60625;51.212;5.952;2023-01-24T22:44:48;33.60;;;19.00;;
72590;SDS011;60625;51.212;5.952;2023-01-24T22:49:49;29.40;;;16.20;;
72590;SDS011;60625;51.212;5.952;2023-01-24T22:54:50;28.60;;;16.90;;
72590;SDS011;60625;51.212;5.952;2023-01-24T22:59:50;33.50;;;17.60;;
72590;SDS011;60625;51.212;5.952;2023-01-24T23:04:51;33.30;;;19.80;;
72590;SDS011;60625;51.212;5.952;2023-01-24T23:09:51;33.80;;;19.10;;
72590;SDS011;60625;51.212;5.952;2023-01-24T23:14:52;36.80;;;19.00;;
72590;SDS011;60625;51.212;5.952;2023-01-24T23:20:12;39.30;;;19.40;;
72590;SDS011;60625;51.212;5.952;2023-01-24T23:25:31;31.80;;;17.90;;
72590;SDS011;60625;51.212;5.952;2023-01-24T23:30:41;30.30;;;15.70;;
72590;SDS011;60625;51.212;5.952;2023-01-24T23:35:45;28.40;;;15.50;;
72590;SDS011;60625;51.212;5.952;2023-01-24T23:40:46;29.10;;;17.20;;
72590;SDS011;60625;51.212;5.952;2023-01-24T23:45:46;27.30;;;15.20;;
72590;SDS011;60625;51.212;5.952;2023-01-24T23:50:57;26.70;;;15.20;;
72590;SDS011;60625;51.212;5.952;2023-01-24T23:55:58;32.20;;;15.90;;
